createdAt,value
2023-02-05T00:01:09.708Z,32.10
2023-02-05T00:03:36.921Z,33.28
2023-02-05T00:06:03.384Z,34.17
2023-02-05T00:08:31.082Z,33.55
2023-02-05T00:10:57.510Z,34.80
2023-02-05T00:13:23.833Z,33.28
2023-02-05T00:15:50.168Z,34.33
2023-02-05T00:18:16.506Z,34.17
2023-02-05T00:20:42.877Z,34.25
2023-02-05T00:23:09.224Z,34.22
2023-02-05T00:25:35.781Z,38.58
2023-02-05T00:28:02.421Z,36.58
2023-02-05T00:30:28.925Z,36.70
2023-02-05T00:32:55.312Z,36.38
2023-02-05T00:35:21.659Z,36.20
2023-02-05T00:37:47.986Z,38.20
2023-02-05T00:40:14.388Z,35.22
2023-02-05T00:42:40.740Z,37.08
2023-02-05T00:45:07.769Z,35.25
2023-02-05T00:47:34.157Z,34.05
2023-02-05T00:50:00.545Z,35.30
2023-02-05T00:52:26.963Z,31.13
2023-02-05T00:54:53.508Z,34.45
2023-02-05T00:57:24.540Z,33.88
2023-02-05T00:59:52.272Z,36.90
2023-02-05T01:02:23.564Z,34.38
2023-02-05T01:04:51.397Z,34.95
2023-02-05T01:07:18.949Z,32.75
2023-02-05T01:09:45.389Z,36.05
2023-02-05T01:12:14.082Z,34.13
2023-02-05T01:14:41.528Z,39.70
2023-02-05T01:17:07.940Z,39.03
2023-02-05T01:19:35.039Z,41.67
2023-02-05T01:22:01.436Z,43.75
2023-02-05T01:24:28.057Z,46.13
2023-02-05T01:26:56.051Z,46.42
2023-02-05T01:29:23.196Z,45.83
2023-02-05T01:31:49.560Z,48.83
2023-02-05T01:34:16.074Z,47.45
2023-02-05T01:36:42.416Z,50.30
2023-02-05T01:39:09.008Z,50.00
2023-02-05T01:41:35.643Z,52.78
2023-02-05T01:44:12.537Z,53.28
2023-02-05T01:46:43.654Z,52.95
2023-02-05T01:49:22.479Z,54.75
2023-02-05T01:51:50.162Z,53.33
2023-02-05T01:54:20.052Z,55.50
2023-02-05T01:56:52.760Z,53.13
2023-02-05T01:59:24.288Z,56.33
2023-02-05T02:01:50.691Z,53.65
2023-02-05T02:04:30.292Z,55.55
2023-02-05T02:06:56.634Z,57.28
2023-02-05T02:09:23.166Z,56.72
2023-02-05T02:11:49.602Z,57.25
2023-02-05T02:14:16.457Z,57.40
2023-02-05T02:16:42.962Z,58.40
2023-02-05T02:19:20.081Z,59.08
2023-02-05T02:22:10.556Z,58.72
2023-02-05T02:24:57.855Z,57.67
2023-02-05T02:27:40.920Z,60.67
2023-02-05T02:30:24.820Z,59.13
2023-02-05T02:33:18.652Z,64.00
2023-02-05T02:36:43.209Z,63.03
2023-02-05T02:39:17.987Z,66.38
2023-02-05T02:41:48.931Z,64.18
2023-02-05T02:44:25.753Z,69.03
2023-02-05T02:46:55.374Z,61.92
2023-02-05T02:49:28.768Z,66.63
2023-02-05T02:51:57.935Z,67.53
2023-02-05T02:54:26.371Z,66.05
2023-02-05T02:56:54.095Z,64.43
2023-02-05T02:59:24.768Z,59.58
2023-02-05T03:02:04.593Z,60.88
2023-02-05T03:04:35.046Z,64.68
2023-02-05T03:07:27.525Z,62.63
2023-02-05T03:10:02.494Z,63.75
2023-02-05T03:12:29.075Z,67.10
2023-02-05T03:14:55.758Z,61.10
2023-02-05T03:17:24.475Z,63.10
2023-02-05T03:20:00.986Z,64.93
2023-02-05T03:22:27.421Z,62.58
2023-02-05T03:24:53.943Z,62.72
2023-02-05T03:27:22.459Z,63.20
2023-02-05T03:29:50.095Z,62.20
2023-02-05T03:32:35.055Z,64.03
2023-02-05T03:35:19.222Z,68.60
2023-02-05T03:38:03.048Z,65.80
2023-02-05T03:40:45.952Z,71.00
2023-02-05T03:43:23.306Z,67.68
2023-02-05T03:46:10.813Z,68.78
2023-02-05T03:49:01.754Z,67.70
2023-02-05T03:51:44.266Z,64.13
2023-02-05T03:54:24.788Z,67.22
2023-02-05T03:57:05.735Z,67.80
2023-02-05T03:59:33.776Z,66.13
2023-02-05T04:02:00.801Z,66.32
2023-02-05T04:04:27.681Z,64.25
2023-02-05T04:06:54.160Z,65.13
2023-02-05T04:09:20.564Z,65.68
2023-02-05T04:11:46.983Z,62.95
2023-02-05T04:14:13.507Z,66.65
2023-02-05T04:16:39.942Z,65.40
2023-02-05T04:19:06.316Z,66.85
2023-02-05T04:21:32.718Z,68.50
2023-02-05T04:23:59.049Z,67.72
2023-02-05T04:26:25.454Z,67.20
2023-02-05T04:28:51.770Z,70.20
2023-02-05T04:31:18.200Z,71.57
2023-02-05T04:33:44.644Z,77.28
2023-02-05T04:36:11.307Z,78.40
2023-02-05T04:38:37.729Z,78.47
2023-02-05T04:41:04.836Z,79.75
2023-02-05T04:43:31.188Z,80.88
2023-02-05T04:45:57.595Z,80.15
2023-02-05T04:48:24.028Z,79.50
2023-02-05T04:50:50.394Z,80.78
2023-02-05T04:53:16.798Z,80.78
2023-02-05T04:55:43.143Z,75.15
2023-02-05T04:58:09.514Z,76.53
2023-02-05T05:00:36.129Z,75.47
2023-02-05T05:03:02.631Z,77.43
2023-02-05T05:05:28.983Z,76.32
2023-02-05T05:07:55.396Z,72.72
2023-02-05T05:10:21.748Z,74.25
2023-02-05T05:12:48.060Z,71.78
2023-02-05T05:15:14.390Z,72.38
2023-02-05T05:17:40.835Z,74.20
2023-02-05T05:20:07.454Z,72.47
2023-02-05T05:22:33.843Z,74.38
2023-02-05T05:25:00.258Z,76.05
2023-02-05T05:27:26.676Z,74.75
2023-02-05T05:29:53.026Z,68.03
2023-02-05T05:32:19.527Z,70.00
2023-02-05T05:34:45.938Z,68.97
2023-02-05T05:37:12.388Z,65.80
2023-02-05T05:39:57.360Z,65.90
2023-02-05T05:42:42.141Z,66.68
2023-02-05T05:45:08.757Z,62.42
2023-02-05T05:47:35.089Z,61.85
2023-02-05T05:50:01.443Z,60.90
2023-02-05T05:52:27.796Z,60.38
2023-02-05T05:54:54.231Z,58.30
2023-02-05T05:57:21.115Z,61.45
2023-02-05T05:59:47.509Z,59.00
2023-02-05T06:02:13.843Z,57.90
2023-02-05T06:04:40.371Z,58.47
2023-02-05T06:07:06.777Z,60.08
2023-02-05T06:09:33.131Z,55.92
2023-02-05T06:11:59.587Z,55.22
2023-02-05T06:14:25.970Z,55.10
2023-02-05T06:16:55.054Z,56.45
2023-02-05T06:19:22.624Z,55.92
2023-02-05T06:21:49.029Z,53.63
2023-02-05T06:24:15.470Z,54.92
2023-02-05T06:26:42.883Z,56.28
2023-02-05T06:29:09.217Z,54.92
2023-02-05T06:31:35.617Z,56.47
2023-02-05T06:34:02.020Z,59.53
2023-02-05T06:36:28.411Z,56.55
2023-02-05T06:38:54.840Z,55.53
2023-02-05T06:41:21.249Z,54.80
2023-02-05T06:43:47.691Z,58.25
2023-02-05T06:46:14.068Z,56.50
2023-02-05T06:48:40.520Z,54.72
2023-02-05T06:51:06.876Z,54.88
2023-02-05T06:53:33.238Z,56.85
2023-02-05T06:55:59.612Z,56.97
2023-02-05T06:58:26.088Z,58.67
2023-02-05T07:00:52.400Z,56.22
2023-02-05T07:03:18.818Z,65.63
2023-02-05T07:05:45.139Z,58.47
2023-02-05T07:08:11.520Z,59.70
2023-02-05T07:10:38.344Z,58.22
2023-02-05T07:13:05.992Z,59.53
2023-02-05T07:15:32.969Z,61.40
2023-02-05T07:17:59.413Z,62.83
2023-02-05T07:20:25.735Z,60.47
2023-02-05T07:22:52.062Z,61.00
2023-02-05T07:25:18.458Z,65.63
2023-02-05T07:27:44.886Z,61.53
2023-02-05T07:30:12.178Z,66.13
2023-02-05T07:32:38.540Z,63.40
2023-02-05T07:35:05.188Z,63.95
2023-02-05T07:37:31.537Z,59.33
2023-02-05T07:39:57.979Z,62.17
2023-02-05T07:42:24.397Z,63.38
2023-02-05T07:44:50.725Z,57.65
2023-02-05T07:47:17.094Z,57.22
2023-02-05T07:49:43.450Z,59.97
2023-02-05T07:52:09.812Z,52.47
2023-02-05T07:54:36.144Z,56.13
2023-02-05T07:57:06.953Z,52.47
2023-02-05T07:59:33.494Z,54.35
2023-02-05T08:01:59.813Z,51.80
2023-02-05T08:04:26.285Z,49.95
2023-02-05T08:06:52.682Z,50.80
2023-02-05T08:09:19.093Z,47.65
2023-02-05T08:11:45.452Z,42.42
2023-02-05T08:14:11.979Z,37.47
2023-02-05T08:16:38.312Z,37.33
2023-02-05T08:19:04.705Z,37.30
2023-02-05T08:21:31.004Z,37.55
2023-02-05T08:23:58.471Z,33.25
2023-02-05T08:26:24.827Z,33.83
2023-02-05T08:28:51.465Z,32.55
2023-02-05T08:31:19.331Z,32.33
2023-02-05T08:33:47.697Z,30.55
2023-02-05T08:36:14.360Z,32.70
2023-02-05T08:38:40.813Z,35.40
2023-02-05T08:41:12.415Z,35.35
2023-02-05T08:43:47.292Z,28.88
2023-02-05T08:46:17.510Z,32.42
2023-02-05T08:48:43.943Z,29.75
2023-02-05T08:51:11.897Z,25.35
2023-02-05T08:53:39.078Z,24.77
2023-02-05T08:56:06.340Z,25.65
2023-02-05T08:58:33.083Z,20.98
2023-02-05T09:01:04.639Z,24.13
2023-02-05T09:03:31.745Z,22.95
2023-02-05T09:05:59.786Z,30.55
2023-02-05T09:08:28.035Z,25.95
2023-02-05T09:10:55.335Z,26.40
2023-02-05T09:13:21.730Z,24.45
2023-02-05T09:15:48.748Z,20.60
2023-02-05T09:18:15.471Z,23.77
2023-02-05T09:20:43.951Z,25.20
2023-02-05T09:23:12.114Z,23.67
2023-02-05T09:25:40.411Z,21.05
2023-02-05T09:28:09.409Z,27.02
2023-02-05T09:30:37.647Z,23.75
2023-02-05T09:33:04.102Z,24.42
2023-02-05T09:35:34.809Z,27.20
2023-02-05T09:38:03.427Z,25.67
2023-02-05T09:40:35.818Z,24.52
2023-02-05T09:43:23.912Z,27.20
2023-02-05T09:45:50.184Z,28.17
2023-02-05T09:48:40.936Z,30.52
2023-02-05T09:51:11.604Z,26.77
2023-02-05T09:53:44.159Z,24.77
2023-02-05T09:56:13.683Z,25.80
2023-02-05T09:58:45.348Z,25.15
2023-02-05T10:01:29.174Z,27.77
2023-02-05T10:04:06.153Z,27.10
2023-02-05T10:06:42.686Z,24.75
2023-02-05T10:09:49.425Z,25.77
2023-02-05T10:12:31.239Z,25.70
2023-02-05T10:15:13.459Z,26.98
2023-02-05T10:17:58.413Z,28.17
2023-02-05T10:20:46.554Z,32.75
2023-02-05T10:23:27.088Z,34.47
2023-02-05T10:26:19.411Z,34.50
2023-02-05T10:29:10.289Z,30.77
2023-02-05T10:31:42.688Z,31.55
2023-02-05T10:34:37.925Z,30.85
2023-02-05T10:37:11.971Z,33.67
2023-02-05T10:39:38.604Z,32.47
2023-02-05T10:42:07.058Z,32.58
2023-02-05T10:44:46.293Z,33.03
2023-02-05T10:47:25.000Z,23.25
2023-02-05T10:50:14.169Z,25.67
2023-02-05T10:52:40.556Z,22.73
2023-02-05T10:55:13.786Z,23.60
2023-02-05T10:57:40.641Z,26.83
2023-02-05T11:00:22.373Z,22.38
2023-02-05T11:02:52.079Z,21.15
2023-02-05T11:05:29.641Z,22.83
2023-02-05T11:07:56.237Z,21.08
2023-02-05T11:10:24.208Z,22.67
2023-02-05T11:12:56.748Z,19.45
2023-02-05T11:15:29.073Z,19.70
2023-02-05T11:18:01.599Z,20.70
2023-02-05T11:20:31.437Z,19.58
2023-02-05T11:23:21.205Z,20.30
2023-02-05T11:25:59.870Z,19.85
2023-02-05T11:28:31.505Z,20.48
2023-02-05T11:31:18.210Z,17.92
2023-02-05T11:33:44.606Z,17.67
2023-02-05T11:36:38.517Z,19.63
2023-02-05T11:39:06.801Z,17.87
2023-02-05T11:41:54.972Z,16.45
2023-02-05T11:44:26.436Z,17.30
2023-02-05T11:46:57.031Z,14.93
2023-02-05T11:49:32.764Z,15.98
2023-02-05T11:51:59.788Z,15.20
2023-02-05T11:54:32.955Z,14.27
2023-02-05T11:57:06.541Z,13.77
2023-02-05T11:59:35.222Z,13.07
2023-02-05T12:02:28.292Z,12.90
2023-02-05T12:05:09.522Z,11.98
2023-02-05T12:07:41.777Z,12.07
2023-02-05T12:10:34.752Z,10.93
2023-02-05T12:13:22.728Z,11.60
2023-02-05T12:16:12.664Z,10.55
2023-02-05T12:19:07.706Z,10.80
2023-02-05T12:21:45.604Z,10.60
2023-02-05T12:24:22.003Z,10.85
2023-02-05T12:26:51.389Z,12.45
2023-02-05T12:29:55.500Z,11.02
2023-02-05T12:32:48.678Z,11.00
2023-02-05T12:35:33.035Z,10.93
2023-02-05T12:40:59.707Z,9.65
2023-02-05T12:43:41.971Z,12.95
2023-02-05T12:46:47.785Z,11.38
2023-02-05T12:49:46.340Z,11.68
2023-02-05T12:52:31.035Z,10.32
2023-02-05T12:55:27.356Z,10.88
2023-02-05T12:57:58.946Z,11.18
2023-02-05T13:00:37.828Z,11.63
2023-02-05T13:03:20.907Z,11.88
2023-02-05T13:05:55.133Z,11.00
2023-02-05T13:10:59.801Z,10.02
2023-02-05T13:13:31.935Z,11.38
2023-02-05T13:16:04.837Z,10.80
2023-02-05T13:18:35.859Z,12.02
2023-02-05T13:21:28.539Z,9.80
2023-02-05T13:24:23.041Z,9.23
2023-02-05T13:27:08.840Z,8.95
2023-02-05T13:29:46.421Z,9.02
2023-02-05T13:32:16.542Z,9.43
2023-02-05T13:34:43.433Z,8.32
2023-02-05T13:37:43.713Z,7.38
2023-02-05T13:40:22.008Z,7.47
2023-02-05T13:43:05.296Z,8.13
2023-02-05T13:46:07.162Z,7.68
2023-02-05T13:48:59.931Z,7.47
2023-02-05T13:51:50.456Z,7.90
2023-02-05T13:54:48.749Z,8.23
2023-02-05T13:57:41.416Z,8.05
2023-02-05T14:00:14.486Z,8.38
2023-02-05T14:02:44.179Z,8.43
2023-02-05T14:05:13.537Z,8.93
2023-02-05T14:07:51.348Z,8.88
2023-02-05T14:10:39.164Z,10.23
2023-02-05T14:13:25.732Z,10.00
2023-02-05T14:15:57.424Z,9.73
2023-02-05T14:18:45.085Z,10.85
2023-02-05T14:21:29.695Z,11.93
2023-02-05T14:26:53.193Z,10.50
2023-02-05T14:29:45.611Z,11.60
2023-02-05T14:32:13.815Z,14.18
2023-02-05T14:34:40.143Z,14.38
2023-02-05T14:37:25.232Z,13.10
2023-02-05T14:39:51.952Z,14.48
2023-02-05T14:42:22.116Z,15.95
2023-02-05T14:45:00.213Z,14.02
2023-02-05T14:47:31.279Z,13.63
2023-02-05T14:50:17.461Z,13.63
2023-02-05T14:52:54.168Z,14.25
2023-02-05T14:55:43.683Z,13.63
2023-02-05T14:58:27.369Z,14.60
2023-02-05T15:01:29.651Z,16.03
2023-02-05T15:03:59.134Z,14.07
2023-02-05T15:06:28.397Z,13.93
2023-02-05T15:09:17.766Z,13.68
2023-02-05T15:12:20.524Z,13.52
2023-02-05T15:14:54.551Z,12.50
2023-02-05T15:17:29.968Z,11.95
2023-02-05T15:20:20.061Z,10.40
2023-02-05T15:22:56.266Z,9.50
2023-02-05T15:25:32.822Z,8.75
2023-02-05T15:28:04.064Z,8.00
2023-02-05T15:30:43.129Z,8.88
2023-02-05T15:33:20.202Z,8.40
2023-02-05T15:35:49.800Z,9.00
2023-02-05T15:38:28.124Z,8.43
2023-02-05T15:40:54.760Z,8.43
2023-02-05T15:43:26.357Z,9.68
2023-02-05T15:46:01.035Z,9.05
2023-02-05T15:48:30.742Z,9.65
2023-02-05T15:51:17.456Z,10.25
2023-02-05T15:53:50.008Z,9.52
2023-02-05T15:56:20.173Z,9.30
2023-02-05T15:59:10.196Z,8.05
2023-02-05T16:01:53.292Z,6.70
2023-02-05T16:04:22.618Z,7.97
2023-02-05T16:06:49.247Z,7.95
2023-02-05T16:09:20.878Z,8.43
2023-02-05T16:11:48.349Z,8.95
2023-02-05T16:14:18.041Z,8.52
2023-02-05T16:17:23.342Z,7.82
2023-02-05T16:20:17.206Z,8.30
2023-02-05T16:22:49.252Z,8.05
2023-02-05T16:25:21.734Z,8.00
2023-02-05T16:27:51.350Z,7.38
2023-02-05T16:30:30.947Z,8.57
2023-02-05T16:32:59.657Z,7.90
2023-02-05T16:35:33.917Z,9.57
2023-02-05T16:40:40.680Z,7.60
2023-02-05T16:43:29.200Z,8.35
2023-02-05T16:46:07.666Z,9.70
2023-02-05T16:48:37.476Z,9.55
2023-02-05T16:51:05.337Z,8.65
2023-02-05T16:53:37.769Z,10.95
2023-02-05T16:56:20.511Z,10.05
2023-02-05T16:58:51.380Z,9.52
2023-02-05T17:01:27.783Z,10.98
2023-02-05T17:03:55.415Z,9.93
2023-02-05T17:06:23.797Z,8.85
2023-02-05T17:08:53.156Z,8.30
2023-02-05T17:11:33.485Z,10.32
2023-02-05T17:14:28.549Z,9.90
2023-02-05T17:17:03.742Z,9.43
2023-02-05T17:19:32.355Z,8.20
2023-02-05T17:22:13.962Z,9.23
2023-02-05T17:24:49.083Z,8.70
2023-02-05T17:27:30.032Z,8.63
2023-02-05T17:29:57.849Z,9.57
2023-02-05T17:32:25.787Z,9.77
2023-02-05T17:34:52.627Z,8.95
2023-02-05T17:37:19.040Z,9.10
2023-02-05T17:39:45.420Z,9.95
2023-02-05T17:42:20.941Z,9.07
2023-02-05T17:44:47.423Z,8.65
2023-02-05T17:47:13.893Z,8.95
2023-02-05T17:49:40.496Z,8.48
2023-02-05T17:52:06.835Z,9.13
2023-02-05T17:54:33.154Z,9.50
2023-02-05T17:57:10.965Z,10.25
2023-02-05T17:59:37.337Z,9.55
2023-02-05T18:02:04.984Z,9.52
2023-02-05T18:04:31.495Z,10.65
2023-02-05T18:06:58.030Z,9.77
2023-02-05T18:09:24.394Z,9.43
2023-02-05T18:11:50.767Z,9.57
2023-02-05T18:14:17.347Z,9.45
2023-02-05T18:16:43.750Z,8.90
2023-02-05T18:19:10.125Z,10.30
2023-02-05T18:21:36.558Z,8.73
2023-02-05T18:24:04.267Z,8.70
2023-02-05T18:26:31.194Z,8.88
2023-02-05T18:28:57.800Z,9.30
2023-02-05T18:31:24.397Z,9.80
2023-02-05T18:33:52.665Z,8.63
2023-02-05T18:36:19.204Z,8.68
2023-02-05T18:38:45.762Z,8.95
2023-02-05T18:41:21.548Z,8.27
2023-02-05T18:43:47.929Z,9.02
2023-02-05T18:46:17.526Z,8.55
2023-02-05T18:48:49.288Z,8.55
2023-02-05T18:51:18.436Z,8.10
2023-02-05T18:53:47.357Z,8.10
2023-02-05T18:56:16.987Z,9.23
2023-02-05T18:58:44.638Z,8.40
2023-02-05T19:01:13.876Z,8.95
2023-02-05T19:03:41.305Z,8.30
2023-02-05T19:06:13.678Z,7.60
2023-02-05T19:08:40.684Z,7.63
2023-02-05T19:11:15.937Z,8.15
2023-02-05T19:13:42.658Z,7.82
2023-02-05T19:16:15.064Z,7.13
2023-02-05T19:18:44.381Z,8.65
2023-02-05T19:21:17.005Z,9.05
2023-02-05T19:23:44.394Z,8.13
2023-02-05T19:26:16.264Z,7.88
2023-02-05T19:28:44.656Z,8.35
2023-02-05T19:31:14.801Z,8.30
2023-02-05T19:33:41.808Z,7.90
2023-02-05T19:36:10.685Z,8.48
2023-02-05T19:38:39.434Z,7.85
2023-02-05T19:41:07.134Z,9.15
2023-02-05T19:43:33.534Z,8.05
2023-02-05T19:46:08.226Z,8.55
2023-02-05T19:48:34.883Z,7.50
2023-02-05T19:51:10.042Z,8.20
2023-02-05T19:53:38.164Z,7.72
2023-02-05T19:56:07.525Z,8.55
2023-02-05T19:58:39.347Z,8.25
2023-02-05T20:01:13.331Z,7.88
2023-02-05T20:03:40.239Z,7.28
2023-02-05T20:06:07.916Z,8.40
2023-02-05T20:08:34.604Z,8.55
2023-02-05T20:11:02.161Z,8.65
2023-02-05T20:13:30.273Z,7.88
2023-02-05T20:16:00.779Z,8.07
2023-02-05T20:18:28.640Z,9.90
2023-02-05T20:20:55.030Z,8.68
2023-02-05T20:23:21.392Z,8.45
2023-02-05T20:25:58.585Z,8.98
2023-02-05T20:28:26.180Z,7.93
2023-02-05T20:31:11.681Z,9.57
2023-02-05T20:33:39.097Z,10.07
2023-02-05T20:36:11.974Z,8.82
2023-02-05T20:38:39.245Z,8.65
2023-02-05T20:41:17.049Z,8.82
2023-02-05T20:43:44.464Z,9.02
2023-02-05T20:46:11.036Z,9.43
2023-02-05T20:48:38.258Z,8.43
2023-02-05T20:51:10.662Z,9.63
2023-02-05T20:53:37.521Z,9.00
2023-02-05T20:56:13.251Z,10.38
2023-02-05T20:58:39.955Z,10.35
2023-02-05T21:01:07.735Z,9.55
2023-02-05T21:03:34.468Z,10.00
2023-02-05T21:06:01.337Z,8.93
2023-02-05T21:08:27.772Z,8.93
2023-02-05T21:10:54.121Z,10.20
2023-02-05T21:13:20.519Z,9.80
2023-02-05T21:15:59.023Z,9.68
2023-02-05T21:18:26.673Z,9.45
2023-02-05T21:20:53.295Z,9.80
2023-02-05T21:23:21.206Z,9.95
2023-02-05T21:25:47.884Z,9.70
2023-02-05T21:28:14.536Z,9.80
2023-02-05T21:30:42.934Z,8.85
2023-02-05T21:33:09.263Z,10.77
2023-02-05T21:35:39.057Z,10.13
2023-02-05T21:38:05.569Z,11.02
2023-02-05T21:40:32.009Z,11.10
2023-02-05T21:42:58.392Z,11.95
2023-02-05T21:45:24.750Z,12.05
2023-02-05T21:47:51.125Z,12.57
2023-02-05T21:50:17.624Z,11.85
2023-02-05T21:52:43.948Z,13.00
2023-02-05T21:55:10.303Z,12.02
2023-02-05T21:57:36.614Z,12.90
2023-02-05T22:00:04.363Z,13.00
2023-02-05T22:02:30.672Z,12.40
2023-02-05T22:04:57.041Z,13.05
2023-02-05T22:07:23.357Z,12.38
2023-02-05T22:09:49.708Z,13.10
2023-02-05T22:12:16.097Z,13.88
2023-02-05T22:14:42.413Z,13.43
2023-02-05T22:17:08.749Z,11.68
2023-02-05T22:19:35.886Z,11.98
2023-02-05T22:22:02.220Z,11.95
2023-02-05T22:24:28.589Z,11.82
2023-02-05T22:26:55.143Z,11.57
2023-02-05T22:29:21.582Z,13.13
2023-02-05T22:31:52.503Z,12.05
2023-02-05T22:34:19.014Z,13.68
2023-02-05T22:36:45.345Z,12.95
2023-02-05T22:39:12.272Z,13.82
2023-02-05T22:41:41.301Z,13.25
2023-02-05T22:44:09.387Z,13.43
2023-02-05T22:46:39.989Z,13.48
2023-02-05T22:49:06.813Z,12.32
2023-02-05T22:51:39.239Z,13.45
2023-02-05T22:54:07.525Z,13.40
2023-02-05T22:56:34.261Z,12.07
2023-02-05T22:59:03.068Z,12.85
2023-02-05T23:01:32.816Z,12.32
2023-02-05T23:03:59.562Z,12.32
2023-02-05T23:06:28.726Z,11.60
2023-02-05T23:09:00.993Z,14.38
2023-02-05T23:11:30.628Z,12.05
2023-02-05T23:13:58.697Z,11.80
2023-02-05T23:16:27.407Z,11.93
2023-02-05T23:18:57.924Z,12.48
2023-02-05T23:21:26.364Z,13.48
2023-02-05T23:23:53.068Z,13.98
2023-02-05T23:26:28.741Z,12.75
2023-02-05T23:28:55.655Z,12.48
2023-02-05T23:31:23.271Z,13.00
2023-02-05T23:33:50.789Z,13.77
2023-02-05T23:36:17.268Z,12.82
2023-02-05T23:38:43.975Z,13.30
2023-02-05T23:41:10.534Z,13.43
2023-02-05T23:43:37.146Z,11.93
2023-02-05T23:46:05.453Z,13.68
2023-02-05T23:48:32.261Z,14.13
2023-02-05T23:50:58.607Z,12.95
2023-02-05T23:53:25.619Z,13.45
2023-02-05T23:55:53.755Z,13.13
2023-02-05T23:58:23.758Z,12.48
